Time;durP1;ratioP1;P1;durP2;ratioP2;P2;SDS_P1;SDS_P2;PMS_P1;PMS_P2;Temp;Humidity;BMP_temperature;BMP_pressure;BME280_temperature;BME280_humidity;BME280_pressure;Samples;Min_cycle;Max_cycle;Signal;HPM_P1;HPM_P2
2021/12/10 00:01:09;;;;;;;0.00;0.00;;;;;;;;;;6270574;22;20396;-67
2021/12/10 00:03:36;;;;;;;0.00;0.00;;;;;;;;;;6270034;22;20003;-67
2021/12/10 00:06:04;;;;;;;0.00;0.00;;;;;;;;;;6271221;22;20333;-66
2021/12/10 00:08:31;;;;;;;0.00;0.00;;;;;;;;;;6243474;22;20011;-67
2021/12/10 00:10:59;;;;;;;0.00;0.00;;;;;;;;;;6244289;22;20007;-68
2021/12/10 00:13:25;;;;;;;0.00;0.00;;;;;;;;;;6273769;22;20038;-67
2021/12/10 00:15:54;;;;;;;0.00;0.00;;;;;;;;;;6273556;22;20325;-67
2021/12/10 00:18:19;;;;;;;0.00;0.00;;;;;;;;;;6273868;22;20008;-67
2021/12/10 00:20:46;;;;;;;0.00;0.00;;;;;;;;;;6273459;22;19996;-67
2021/12/10 00:23:14;;;;;;;0.13;0.13;;;;;;;;;;6246759;22;19996;-67
2021/12/10 00:25:44;;;;;;;0.00;0.00;;;;;;;;;;6273279;22;20019;-68
2021/12/10 00:28:17;;;;;;;0.00;0.00;;;;;;;;;;6274129;22;20344;-67
2021/12/10 00:30:56;;;;;;;0.00;0.00;;;;;;;;;;6273276;22;20023;-67
2021/12/10 00:38:44;;;;;;;0.00;0.00;;;;;;;;;;6263755;22;20102;-67
2021/12/10 00:41:09;;;;;;;0.00;0.00;;;;;;;;;;6271994;22;20031;-67
2021/12/10 00:43:35;;;;;;;0.60;0.60;;;;;;;;;;6273583;22;19999;-68
2021/12/10 00:46:00;;;;;;;0.00;0.00;;;;;;;;;;6273671;22;20000;-68
2021/12/10 00:48:26;;;;;;;0.50;0.50;;;;;;;;;;6273532;22;20008;-68
2021/12/10 00:50:53;;;;;;;0.00;0.00;;;;;;;;;;6273039;22;20041;-66
2021/12/10 00:53:18;;;;;;;0.10;0.08;;;;;;;;;;6273717;22;20499;-68
2021/12/10 00:55:43;;;;;;;0.35;0.03;;;;;;;;;;6273656;22;20012;-67
2021/12/10 00:58:09;;;;;;;0.00;0.00;;;;;;;;;;6273401;22;19992;-66
2021/12/10 01:00:45;;;;;;;4.57;0.30;;;;;;;;;;6272530;22;20042;-67
2021/12/10 01:03:12;;;;;;;0.00;0.00;;;;;;;;;;6273679;22;20000;-67
2021/12/10 01:05:39;;;;;;;0.22;0.22;;;;;;;;;;6273016;22;20000;-66
2021/12/10 01:08:04;;;;;;;0.00;0.00;;;;;;;;;;6272131;22;20014;-67
2021/12/10 01:10:33;;;;;;;0.00;0.00;;;;;;;;;;6274199;22;20004;-67
2021/12/10 01:13:00;;;;;;;0.00;0.00;;;;;;;;;;6272960;22;20007;-67
2021/12/10 01:28:44;;;;;;;0.25;0.17;;;;;;;;;;6272818;22;20000;-66
2021/12/10 01:31:10;;;;;;;3.72;0.63;;;;;;;;;;6273539;22;19999;-67
2021/12/10 01:33:35;;;;;;;0.10;0.10;;;;;;;;;;6273040;22;19995;-67
2021/12/10 01:36:06;;;;;;;0.10;0.10;;;;;;;;;;6272124;22;20000;-67
2021/12/10 01:38:31;;;;;;;0.10;0.10;;;;;;;;;;6272812;22;20053;-67
2021/12/10 01:40:59;;;;;;;0.00;0.00;;;;;;;;;;6272924;22;20376;-67
2021/12/10 01:43:25;;;;;;;0.00;0.00;;;;;;;;;;6273100;22;20306;-67
2021/12/10 01:45:53;;;;;;;0.13;0.13;;;;;;;;;;6272861;22;20006;-67
2021/12/10 01:48:22;;;;;;;1.85;1.67;;;;;;;;;;6273064;22;20046;-67
2021/12/10 01:50:48;;;;;;;0.35;0.35;;;;;;;;;;6272428;22;20010;-67
2021/12/10 01:53:15;;;;;;;0.00;0.00;;;;;;;;;;6273128;22;20000;-67
2021/12/10 01:55:41;;;;;;;0.45;0.43;;;;;;;;;;6273091;22;20003;-67
2021/12/10 01:58:09;;;;;;;0.17;0.15;;;;;;;;;;6272603;22;20010;-67
2021/12/10 02:00:37;;;;;;;0.00;0.00;;;;;;;;;;6272965;22;19996;-67
2021/12/10 02:03:02;;;;;;;0.32;0.22;;;;;;;;;;6272474;22;20006;-67
2021/12/10 02:05:28;;;;;;;0.45;0.45;;;;;;;;;;6272173;22;20004;-66
2021/12/10 02:07:54;;;;;;;0.00;0.00;;;;;;;;;;6272403;22;20004;-67
2021/12/10 02:10:20;;;;;;;1.13;0.30;;;;;;;;;;6272628;22;20004;-68
2021/12/10 02:12:46;;;;;;;0.38;0.35;;;;;;;;;;6272408;22;20010;-67
2021/12/10 02:15:12;;;;;;;0.65;0.65;;;;;;;;;;6272871;22;20000;-67
2021/12/10 02:17:40;;;;;;;0.90;0.80;;;;;;;;;;6273184;22;20003;-67
2021/12/10 02:20:08;;;;;;;0.35;0.35;;;;;;;;;;6272144;22;19992;-67
2021/12/10 02:22:33;;;;;;;0.00;0.00;;;;;;;;;;6272901;22;20102;-67
2021/12/10 02:24:59;;;;;;;2.30;1.58;;;;;;;;;;6272086;22;20034;-67
2021/12/10 02:27:24;;;;;;;0.20;0.20;;;;;;;;;;6272895;22;20080;-67
2021/12/10 02:29:49;;;;;;;0.30;0.30;;;;;;;;;;6271860;22;20329;-67
2021/12/10 02:32:14;;;;;;;5.25;1.27;;;;;;;;;;6272885;22;20002;-67
2021/12/10 02:34:41;;;;;;;0.20;0.20;;;;;;;;;;6271535;22;20007;-67
2021/12/10 02:37:07;;;;;;;1.45;1.00;;;;;;;;;;6271983;22;20087;-67
2021/12/10 02:39:32;;;;;;;0.03;0.03;;;;;;;;;;6272938;22;20050;-68
2021/12/10 02:41:57;;;;;;;0.00;0.00;;;;;;;;;;6272664;22;20046;-66
2021/12/10 02:44:28;;;;;;;0.00;0.00;;;;;;;;;;6273154;22;20410;-67
2021/12/10 02:46:54;;;;;;;0.20;0.20;;;;;;;;;;6272195;22;20007;-67
2021/12/10 02:49:19;;;;;;;0.00;0.00;;;;;;;;;;6273005;22;20008;-67
2021/12/10 02:51:45;;;;;;;0.10;0.10;;;;;;;;;;6272672;22;19999;-67
2021/12/10 02:54:11;;;;;;;0.00;0.00;;;;;;;;;;6272335;22;19995;-67
2021/12/10 02:56:37;;;;;;;0.05;0.05;;;;;;;;;;6273100;22;20346;-67
2021/12/10 02:59:03;;;;;;;0.43;0.43;;;;;;;;;;6272657;22;19999;-67
2021/12/10 03:01:31;;;;;;;0.10;0.10;;;;;;;;;;6272522;22;19996;-67
2021/12/10 03:03:56;;;;;;;8.57;1.33;;;;;;;;;;6271792;22;20049;-68
2021/12/10 03:06:22;;;;;;;0.00;0.00;;;;;;;;;;6272604;22;20007;-66
2021/12/10 03:08:50;;;;;;;0.00;0.00;;;;;;;;;;6272368;22;20008;-67
2021/12/10 03:11:17;;;;;;;0.38;0.25;;;;;;;;;;6272538;22;20448;-66
2021/12/10 03:13:42;;;;;;;0.00;0.00;;;;;;;;;;6272861;22;20004;-68
2021/12/10 03:16:08;;;;;;;0.00;0.00;;;;;;;;;;6271820;22;20478;-68
2021/12/10 03:18:34;;;;;;;0.52;0.40;;;;;;;;;;6272714;22;20094;-67
2021/12/10 03:21:00;;;;;;;0.00;0.00;;;;;;;;;;6271787;22;19999;-68
2021/12/10 03:23:26;;;;;;;0.00;0.00;;;;;;;;;;6272777;22;20418;-67
2021/12/10 03:25:51;;;;;;;0.00;0.00;;;;;;;;;;6272189;22;20003;-66
2021/12/10 03:28:16;;;;;;;0.00;0.00;;;;;;;;;;6272705;22;20326;-66
2021/12/10 03:30:47;;;;;;;1.48;1.38;;;;;;;;;;6272204;22;20576;-67
2021/12/10 03:33:12;;;;;;;0.00;0.00;;;;;;;;;;6272032;22;20003;-66
2021/12/10 03:35:42;;;;;;;0.00;0.00;;;;;;;;;;6272645;22;19996;-67
2021/12/10 03:38:08;;;;;;;0.00;0.00;;;;;;;;;;6271297;22;20006;-67
2021/12/10 03:40:34;;;;;;;1.17;1.10;;;;;;;;;;6272863;22;20007;-66
2021/12/10 03:42:59;;;;;;;0.00;0.00;;;;;;;;;;6271995;22;20362;-66
2021/12/10 03:45:26;;;;;;;0.45;0.45;;;;;;;;;;6271470;22;20083;-66
2021/12/10 03:47:51;;;;;;;1.02;0.93;;;;;;;;;;6271785;22;19999;-66
2021/12/10 03:50:26;;;;;;;0.75;0.75;;;;;;;;;;6272221;22;20002;-67
2021/12/10 03:52:51;;;;;;;0.10;0.10;;;;;;;;;;6271651;22;20000;-66
2021/12/10 03:55:18;;;;;;;0.00;0.00;;;;;;;;;;6272418;22;20406;-66
2021/12/10 03:57:44;;;;;;;0.00;0.00;;;;;;;;;;6272250;22;19999;-66
2021/12/10 04:00:09;;;;;;;0.85;0.85;;;;;;;;;;6271644;22;20486;-67
2021/12/10 04:02:35;;;;;;;1.65;1.65;;;;;;;;;;6272267;22;19996;-66
2021/12/10 04:05:00;;;;;;;0.00;0.00;;;;;;;;;;6271893;22;19996;-66
2021/12/10 04:07:26;;;;;;;0.00;0.00;;;;;;;;;;6272169;22;20003;-67
2021/12/10 04:09:52;;;;;;;0.00;0.00;;;;;;;;;;6271758;22;20079;-66
2021/12/10 04:12:18;;;;;;;0.00;0.00;;;;;;;;;;6272432;22;20058;-67
2021/12/10 04:14:45;;;;;;;0.10;0.10;;;;;;;;;;6272437;22;20007;-66
2021/12/10 04:17:11;;;;;;;0.00;0.00;;;;;;;;;;6272043;22;20406;-66
2021/12/10 04:19:37;;;;;;;0.17;0.17;;;;;;;;;;6272307;22;20069;-67
2021/12/10 04:22:05;;;;;;;0.70;0.10;;;;;;;;;;6271604;22;20410;-67
2021/12/10 04:24:32;;;;;;;0.00;0.00;;;;;;;;;;6271636;22;20070;-66
2021/12/10 04:26:58;;;;;;;0.00;0.00;;;;;;;;;;6243958;22;20044;-66
2021/12/10 04:29:23;;;;;;;0.00;0.00;;;;;;;;;;6271608;22;19996;-67
2021/12/10 04:31:50;;;;;;;0.00;0.00;;;;;;;;;;6272535;22;20373;-67
2021/12/10 04:34:15;;;;;;;0.10;0.10;;;;;;;;;;6271886;22;19995;-66
2021/12/10 04:36:40;;;;;;;0.00;0.00;;;;;;;;;;6271686;22;19996;-66
2021/12/10 04:39:06;;;;;;;0.30;0.30;;;;;;;;;;6270949;22;20509;-66
2021/12/10 04:41:32;;;;;;;0.00;0.00;;;;;;;;;;6271672;22;20405;-67
2021/12/10 04:43:57;;;;;;;0.45;0.22;;;;;;;;;;6271617;22;20073;-67
2021/12/10 04:46:22;;;;;;;0.00;0.00;;;;;;;;;;6272124;22;19999;-67
2021/12/10 04:48:53;;;;;;;0.00;0.00;;;;;;;;;;6272375;22;20004;-67
2021/12/10 04:51:19;;;;;;;1.35;0.85;;;;;;;;;;6271737;22;20083;-66
2021/12/10 04:53:45;;;;;;;0.00;0.00;;;;;;;;;;6272041;22;20000;-66
2021/12/10 04:56:10;;;;;;;0.00;0.00;;;;;;;;;;6271540;22;20026;-66
2021/12/10 04:58:35;;;;;;;0.00;0.00;;;;;;;;;;6273490;22;19995;-67
2021/12/10 05:01:02;;;;;;;0.00;0.00;;;;;;;;;;6273156;22;19992;-67
2021/12/10 05:03:28;;;;;;;0.00;0.00;;;;;;;;;;6273974;22;20130;-67
2021/12/10 05:05:59;;;;;;;0.00;0.00;;;;;;;;;;6273962;22;20023;-66
2021/12/10 05:08:24;;;;;;;1.00;1.00;;;;;;;;;;6273644;22;20007;-66
2021/12/10 05:10:50;;;;;;;0.00;0.00;;;;;;;;;;6274315;22;20061;-67
2021/12/10 05:13:15;;;;;;;21.30;12.30;;;;;;;;;;6273523;22;20474;-66
2021/12/10 05:15:40;;;;;;;0.00;0.00;;;;;;;;;;6273826;22;20064;-67
2021/12/10 05:18:06;;;;;;;0.00;0.00;;;;;;;;;;6273002;22;20083;-67
2021/12/10 05:20:34;;;;;;;0.00;0.00;;;;;;;;;;6273656;22;19992;-67
2021/12/10 05:23:00;;;;;;;0.00;0.00;;;;;;;;;;6272904;22;20066;-67
2021/12/10 05:25:26;;;;;;;0.10;0.10;;;;;;;;;;6273785;22;20076;-66
2021/12/10 05:27:52;;;;;;;0.00;0.00;;;;;;;;;;6273000;22;20007;-66
2021/12/10 05:30:19;;;;;;;0.00;0.00;;;;;;;;;;6273396;22;20010;-65
2021/12/10 05:32:44;;;;;;;0.00;0.00;;;;;;;;;;6273574;22;19999;-66
2021/12/10 05:35:10;;;;;;;0.00;0.00;;;;;;;;;;6273122;22;20014;-66
2021/12/10 05:37:35;;;;;;;3.00;2.45;;;;;;;;;;6273316;22;19992;-69
2021/12/10 05:40:01;;;;;;;0.00;0.00;;;;;;;;;;6272493;22;20012;-68
2021/12/10 05:42:26;;;;;;;0.00;0.00;;;;;;;;;;6246525;22;19999;-67
2021/12/10 05:44:51;;;;;;;0.00;0.00;;;;;;;;;;6273482;22;19995;-67
2021/12/10 05:47:17;;;;;;;0.00;0.00;;;;;;;;;;6273031;22;20000;-67
2021/12/10 05:49:42;;;;;;;0.00;0.00;;;;;;;;;;6246295;22;20007;-67
2021/12/10 05:52:08;;;;;;;0.00;0.00;;;;;;;;;;6272663;22;19996;-67
2021/12/10 05:54:34;;;;;;;0.00;0.00;;;;;;;;;;6273416;22;20000;-67
2021/12/10 05:56:59;;;;;;;0.00;0.00;;;;;;;;;;6272076;22;20049;-68
2021/12/10 05:59:24;;;;;;;0.00;0.00;;;;;;;;;;6273392;22;19996;-67
2021/12/10 06:01:50;;;;;;;0.00;0.00;;;;;;;;;;6245633;22;19988;-68
2021/12/10 06:04:21;;;;;;;0.00;0.00;;;;;;;;;;6272661;22;20521;-68
2021/12/10 06:06:46;;;;;;;0.00;0.00;;;;;;;;;;6245804;22;20003;-67
2021/12/10 06:09:11;;;;;;;0.00;0.00;;;;;;;;;;6271982;22;20054;-67
2021/12/10 06:11:36;;;;;;;0.00;0.00;;;;;;;;;;6245641;22;20053;-67
2021/12/10 06:14:02;;;;;;;0.00;0.00;;;;;;;;;;6272819;22;20005;-67
2021/12/10 06:16:27;;;;;;;0.00;0.00;;;;;;;;;;6272811;22;20452;-67
2021/12/10 06:18:53;;;;;;;0.00;0.00;;;;;;;;;;6273194;22;20002;-65
2021/12/10 06:21:18;;;;;;;0.00;0.00;;;;;;;;;;6272265;22;20006;-66
2021/12/10 06:23:44;;;;;;;0.00;0.00;;;;;;;;;;6272078;22;20053;-66
2021/12/10 06:26:09;;;;;;;0.00;0.00;;;;;;;;;;6272127;22;20022;-67
2021/12/10 06:28:35;;;;;;;0.00;0.00;;;;;;;;;;6272915;22;20314;-67
2021/12/10 06:31:00;;;;;;;6.00;2.38;;;;;;;;;;6245215;22;20447;-67
2021/12/10 06:33:28;;;;;;;0.00;0.00;;;;;;;;;;6272860;22;20402;-67
2021/12/10 06:35:54;;;;;;;0.00;0.00;;;;;;;;;;6272863;22;20138;-67
2021/12/10 06:38:19;;;;;;;0.13;0.13;;;;;;;;;;6271534;22;20008;-67
2021/12/10 06:40:45;;;;;;;0.00;0.00;;;;;;;;;;6245810;22;20008;-67
2021/12/10 06:43:11;;;;;;;0.00;0.00;;;;;;;;;;6272210;22;20321;-67
2021/12/10 06:45:38;;;;;;;0.00;0.00;;;;;;;;;;6272592;22;20010;-67
2021/12/10 06:48:05;;;;;;;0.00;0.00;;;;;;;;;;6244566;22;20004;-67
2021/12/10 06:50:32;;;;;;;0.00;0.00;;;;;;;;;;6272432;22;19996;-67
2021/12/10 06:52:58;;;;;;;0.00;0.00;;;;;;;;;;6271829;22;20003;-67
2021/12/10 06:55:24;;;;;;;0.00;0.00;;;;;;;;;;6271854;22;20057;-67
2021/12/10 06:57:50;;;;;;;0.00;0.00;;;;;;;;;;6272382;22;19995;-67
2021/12/10 07:00:18;;;;;;;0.00;0.00;;;;;;;;;;6272358;22;19996;-68
2021/12/10 07:02:44;;;;;;;0.00;0.00;;;;;;;;;;6272751;22;20457;-67
2021/12/10 07:05:09;;;;;;;0.15;0.15;;;;;;;;;;6272134;22;20030;-67
2021/12/10 07:07:38;;;;;;;0.00;0.00;;;;;;;;;;6271977;22;20360;-67
2021/12/10 07:10:04;;;;;;;0.00;0.00;;;;;;;;;;6272050;22;20352;-67
2021/12/10 07:12:30;;;;;;;0.00;0.00;;;;;;;;;;6272099;22;19999;-67
2021/12/10 07:15:00;;;;;;;0.00;0.00;;;;;;;;;;6272420;22;19999;-66
2021/12/10 07:17:25;;;;;;;0.55;0.55;;;;;;;;;;6271606;22;19999;-64
2021/12/10 07:19:50;;;;;;;0.00;0.00;;;;;;;;;;6272704;22;19992;-66
2021/12/10 07:22:15;;;;;;;0.00;0.00;;;;;;;;;;6271470;22;20030;-66
2021/12/10 07:24:41;;;;;;;0.00;0.00;;;;;;;;;;6272606;22;20075;-66
2021/12/10 07:27:09;;;;;;;0.00;0.00;;;;;;;;;;6271928;22;20004;-66
2021/12/10 07:29:35;;;;;;;1.50;1.42;;;;;;;;;;6245178;22;20002;-65
2021/12/10 07:32:00;;;;;;;0.00;0.00;;;;;;;;;;6272621;22;19995;-65
2021/12/10 07:34:25;;;;;;;0.00;0.00;;;;;;;;;;6272014;22;20082;-66
2021/12/10 07:36:50;;;;;;;0.00;0.00;;;;;;;;;;6272020;22;20110;-66
2021/12/10 07:39:16;;;;;;;0.25;0.25;;;;;;;;;;6271250;22;20012;-66
2021/12/10 07:41:41;;;;;;;0.00;0.00;;;;;;;;;;6272190;22;19995;-66
2021/12/10 07:44:07;;;;;;;0.00;0.00;;;;;;;;;;6271912;22;19992;-65
2021/12/10 07:46:34;;;;;;;0.00;0.00;;;;;;;;;;6272200;22;20082;-66
2021/12/10 07:49:00;;;;;;;0.30;0.30;;;;;;;;;;6271632;22;20078;-66
2021/12/10 07:51:27;;;;;;;0.00;0.00;;;;;;;;;;6271252;22;20055;-67
2021/12/10 07:53:56;;;;;;;2.92;2.80;;;;;;;;;;6271987;22;19999;-66
2021/12/10 07:56:22;;;;;;;0.00;0.00;;;;;;;;;;6271547;22;20079;-67
2021/12/10 07:58:47;;;;;;;0.00;0.00;;;;;;;;;;6245191;22;20086;-66
2021/12/10 08:01:15;;;;;;;0.00;0.00;;;;;;;;;;6271370;22;20006;-65
2021/12/10 08:03:40;;;;;;;0.17;0.17;;;;;;;;;;6272086;22;20091;-65
2021/12/10 08:06:09;;;;;;;0.00;0.00;;;;;;;;;;6271591;22;20439;-65
2021/12/10 08:08:35;;;;;;;0.00;0.00;;;;;;;;;;6271528;22;20000;-65
2021/12/10 08:11:00;;;;;;;0.00;0.00;;;;;;;;;;6271890;22;20007;-65
2021/12/10 08:13:25;;;;;;;0.00;0.00;;;;;;;;;;6271790;22;20417;-65
2021/12/10 08:15:51;;;;;;;0.00;0.00;;;;;;;;;;6272016;22;20644;-66
2021/12/10 08:18:16;;;;;;;0.00;0.00;;;;;;;;;;6244239;22;20008;-66
2021/12/10 08:20:42;;;;;;;0.00;0.00;;;;;;;;;;6271501;22;20463;-66
2021/12/10 08:23:07;;;;;;;0.00;0.00;;;;;;;;;;6270984;22;20337;-66
2021/12/10 08:25:33;;;;;;;0.00;0.00;;;;;;;;;;6272152;22;20007;-66
2021/12/10 08:27:59;;;;;;;0.00;0.00;;;;;;;;;;6272270;22;20008;-66
2021/12/10 08:30:25;;;;;;;0.00;0.00;;;;;;;;;;6271909;22;20086;-66
2021/12/10 08:32:53;;;;;;;0.00;0.00;;;;;;;;;;6273780;22;20387;-65
2021/12/10 08:35:20;;;;;;;0.00;0.00;;;;;;;;;;6274273;22;20027;-65
2021/12/10 08:37:46;;;;;;;0.10;0.10;;;;;;;;;;6274292;22;20075;-66
2021/12/10 08:40:14;;;;;;;0.00;0.00;;;;;;;;;;6273994;22;20046;-64
2021/12/10 08:42:39;;;;;;;0.00;0.00;;;;;;;;;;6273931;22;20007;-65
2021/12/10 08:45:05;;;;;;;6.50;6.28;;;;;;;;;;6247064;22;20004;-64
2021/12/10 08:47:30;;;;;;;0.00;0.00;;;;;;;;;;6273629;22;20057;-65
2021/12/10 08:49:56;;;;;;;0.00;0.00;;;;;;;;;;6272979;22;20459;-63
2021/12/10 08:52:21;;;;;;;0.00;0.00;;;;;;;;;;6269633;22;20019;-64
2021/12/10 08:54:47;;;;;;;0.00;0.00;;;;;;;;;;6273411;22;19999;-63
2021/12/10 08:57:12;;;;;;;0.00;0.00;;;;;;;;;;6273175;22;19996;-64
2021/12/10 08:59:39;;;;;;;0.25;0.25;;;;;;;;;;6272067;22;20026;-65
2021/12/10 09:02:06;;;;;;;0.00;0.00;;;;;;;;;;6273512;22;20390;-64
2021/12/10 09:04:31;;;;;;;0.00;0.00;;;;;;;;;;6271307;22;20074;-64
2021/12/10 09:07:02;;;;;;;0.00;0.00;;;;;;;;;;6273389;22;20015;-64
2021/12/10 09:09:28;;;;;;;0.00;0.00;;;;;;;;;;6273402;22;20382;-64
2021/12/10 09:11:55;;;;;;;0.00;0.00;;;;;;;;;;6273767;22;20003;-64
2021/12/10 09:14:26;;;;;;;1.38;1.38;;;;;;;;;;6273004;22;20007;-64
2021/12/10 09:16:52;;;;;;;0.15;0.15;;;;;;;;;;6273495;22;19996;-64
2021/12/10 09:19:18;;;;;;;0.10;0.10;;;;;;;;;;6272606;22;19995;-65
2021/12/10 09:21:43;;;;;;;0.00;0.00;;;;;;;;;;6273761;22;20297;-64
2021/12/10 09:24:10;;;;;;;0.00;0.00;;;;;;;;;;6273528;22;20022;-64
2021/12/10 09:26:40;;;;;;;0.00;0.00;;;;;;;;;;6273627;22;20000;-64
2021/12/10 09:29:07;;;;;;;0.00;0.00;;;;;;;;;;6274004;22;19999;-64
2021/12/10 09:31:32;;;;;;;0.00;0.00;;;;;;;;;;6276270;22;19999;-65
2021/12/10 09:33:58;;;;;;;0.00;0.00;;;;;;;;;;6274939;22;20430;-64
2021/12/10 09:36:25;;;;;;;0.00;0.00;;;;;;;;;;6276717;22;20121;-64
2021/12/10 09:38:50;;;;;;;0.00;0.00;;;;;;;;;;6274707;22;20039;-64
2021/12/10 09:41:16;;;;;;;0.00;0.00;;;;;;;;;;6276323;22;20298;-67
2021/12/10 09:43:42;;;;;;;0.00;0.00;;;;;;;;;;6276409;22;20054;-65
2021/12/10 09:46:09;;;;;;;0.20;0.20;;;;;;;;;;6276715;22;20086;-64
2021/12/10 09:48:34;;;;;;;0.28;0.20;;;;;;;;;;6276943;22;19999;-65
2021/12/10 09:51:06;;;;;;;7.28;2.08;;;;;;;;;;6276534;22;20326;-65
2021/12/10 09:53:32;;;;;;;0.00;0.00;;;;;;;;;;6276810;22;19995;-65
2021/12/10 09:55:57;;;;;;;0.00;0.00;;;;;;;;;;6276629;22;20007;-65
2021/12/10 09:58:22;;;;;;;0.00;0.00;;;;;;;;;;6276765;22;19996;-65
2021/12/10 10:00:50;;;;;;;0.00;0.00;;;;;;;;;;6276905;22;20002;-65
2021/12/10 10:03:17;;;;;;;0.00;0.00;;;;;;;;;;6276336;22;20018;-65
2021/12/10 10:05:45;;;;;;;0.00;0.00;;;;;;;;;;6276256;22;20075;-65
2021/12/10 10:08:11;;;;;;;0.10;0.00;;;;;;;;;;6275361;22;20428;-64
2021/12/10 10:10:39;;;;;;;0.40;0.40;;;;;;;;;;6276534;22;20011;-64
2021/12/10 10:13:06;;;;;;;1.35;1.25;;;;;;;;;;6276580;22;20054;-63
2021/12/10 10:15:34;;;;;;;0.00;0.00;;;;;;;;;;6275920;22;20003;-64
2021/12/10 10:18:06;;;;;;;0.20;0.20;;;;;;;;;;6276470;22;20026;-63
2021/12/10 10:20:34;;;;;;;0.28;0.22;;;;;;;;;;6274524;22;19995;-67
2021/12/10 10:23:00;;;;;;;2.08;1.85;;;;;;;;;;6275403;22;20002;-67
2021/12/10 10:25:26;;;;;;;0.93;0.90;;;;;;;;;;6276580;22;20027;-66
2021/12/10 10:27:51;;;;;;;0.00;0.00;;;;;;;;;;6276361;22;20003;-66
2021/12/10 10:30:25;;;;;;;0.00;0.00;;;;;;;;;;6274760;22;20448;-67
2021/12/10 10:32:51;;;;;;;0.60;0.60;;;;;;;;;;6272943;22;20420;-70
2021/12/10 10:35:18;;;;;;;0.00;0.00;;;;;;;;;;6271800;22;20043;-66
2021/12/10 10:37:44;;;;;;;0.00;0.00;;;;;;;;;;6246056;22;20004;-65
2021/12/10 10:40:11;;;;;;;0.00;0.00;;;;;;;;;;6273425;22;20433;-65
2021/12/10 10:42:37;;;;;;;0.20;0.20;;;;;;;;;;6272780;22;20015;-65
2021/12/10 10:45:08;;;;;;;0.05;0.05;;;;;;;;;;6273077;22;20090;-65
2021/12/10 10:47:33;;;;;;;0.00;0.00;;;;;;;;;;6274057;22;20027;-66
2021/12/10 10:50:00;;;;;;;0.00;0.00;;;;;;;;;;6272059;22;20002;-65
2021/12/10 10:52:28;;;;;;;0.00;0.00;;;;;;;;;;6271198;22;20433;-65
2021/12/10 10:54:54;;;;;;;0.00;0.00;;;;;;;;;;6271072;22;20441;-65
2021/12/10 10:57:24;;;;;;;11.25;1.10;;;;;;;;;;6244769;22;20000;-65
2021/12/10 10:59:54;;;;;;;0.00;0.00;;;;;;;;;;6245233;22;20000;-65
2021/12/10 11:02:19;;;;;;;0.00;0.00;;;;;;;;;;6271843;22;20098;-65
2021/12/10 11:04:46;;;;;;;3.35;1.25;;;;;;;;;;6271482;22;20019;-65
2021/12/10 11:07:11;;;;;;;1.30;1.30;;;;;;;;;;6275274;22;20364;-63
2021/12/10 11:09:42;;;;;;;0.00;0.00;;;;;;;;;;6276527;22;20007;-63
2021/12/10 11:12:28;;;;;;;0.00;0.00;;;;;;;;;;6275285;22;20004;-63
2021/12/10 11:14:55;;;;;;;1.65;0.63;;;;;;;;;;6275906;22;20000;-63
2021/12/10 11:17:20;;;;;;;0.00;0.00;;;;;;;;;;6275854;22;20019;-63
2021/12/10 11:19:50;;;;;;;0.40;0.40;;;;;;;;;;6275948;22;20472;-63
2021/12/10 11:22:15;;;;;;;0.85;0.85;;;;;;;;;;6275771;22;20333;-64
2021/12/10 11:24:45;;;;;;;0.08;0.08;;;;;;;;;;6248820;22;19996;-64
2021/12/10 11:27:20;;;;;;;0.40;0.32;;;;;;;;;;6275756;22;20074;-64
2021/12/10 11:29:47;;;;;;;0.00;0.00;;;;;;;;;;6275992;22;20002;-63
2021/12/10 11:32:27;;;;;;;1.67;0.77;;;;;;;;;;6275622;22;19999;-64
2021/12/10 11:35:11;;;;;;;0.00;0.00;;;;;;;;;;6275885;22;19992;-63
2021/12/10 11:37:37;;;;;;;0.10;0.10;;;;;;;;;;6275848;22;20023;-62
2021/12/10 11:40:04;;;;;;;0.30;0.30;;;;;;;;;;6276251;22;20309;-64
2021/12/10 11:42:31;;;;;;;0.90;0.38;;;;;;;;;;6248590;22;20433;-64
2021/12/10 11:45:17;;;;;;;2.50;2.40;;;;;;;;;;6275990;22;20548;-63
2021/12/10 11:47:50;;;;;;;0.00;0.00;;;;;;;;;;6248927;22;20003;-62
2021/12/10 11:50:17;;;;;;;0.63;0.60;;;;;;;;;;6275589;22;19995;-63
2021/12/10 11:52:42;;;;;;;0.75;0.75;;;;;;;;;;6275762;22;19992;-63
2021/12/10 11:55:09;;;;;;;0.47;0.47;;;;;;;;;;6273320;22;20499;-64
2021/12/10 11:57:36;;;;;;;0.60;0.60;;;;;;;;;;6271468;22;19999;-65
2021/12/10 12:00:06;;;;;;;0.60;0.60;;;;;;;;;;6271217;22;20000;-65
2021/12/10 12:02:34;;;;;;;1.23;1.13;;;;;;;;;;6244355;22;19991;-64
2021/12/10 12:05:06;;;;;;;0.68;0.68;;;;;;;;;;6271790;22;19999;-64
2021/12/10 12:07:39;;;;;;;3.60;3.40;;;;;;;;;;6244467;22;20027;-64
2021/12/10 12:10:12;;;;;;;2.10;0.60;;;;;;;;;;6273658;22;20008;-65
2021/12/10 12:12:44;;;;;;;0.00;0.00;;;;;;;;;;6272930;22;20494;-63
2021/12/10 12:15:30;;;;;;;0.03;0.03;;;;;;;;;;6273477;22;20007;-64
2021/12/10 12:17:57;;;;;;;0.00;0.00;;;;;;;;;;6272541;22;20000;-65
2021/12/10 12:20:37;;;;;;;0.93;0.68;;;;;;;;;;6273790;22;19988;-64
2021/12/10 12:25:53;;;;;;;0.50;0.50;;;;;;;;;;6274144;22;20053;-67
2021/12/10 12:28:20;;;;;;;0.60;0.60;;;;;;;;;;6274113;22;20456;-67
2021/12/10 12:30:50;;;;;;;0.00;0.00;;;;;;;;;;6273862;22;20333;-66
2021/12/10 12:33:16;;;;;;;6.75;0.65;;;;;;;;;;6273095;22;20452;-66
2021/12/10 12:35:41;;;;;;;1.80;1.70;;;;;;;;;;6272416;22;20000;-66
2021/12/10 12:38:14;;;;;;;1.02;1.02;;;;;;;;;;6272049;22;20054;-65
2021/12/10 12:40:40;;;;;;;0.00;0.00;;;;;;;;;;6272920;22;20031;-65
2021/12/10 12:43:06;;;;;;;0.00;0.00;;;;;;;;;;6273452;22;19992;-65
2021/12/10 12:45:32;;;;;;;0.88;0.88;;;;;;;;;;6272939;22;20070;-66
2021/12/10 12:47:58;;;;;;;0.63;0.63;;;;;;;;;;6273542;22;20080;-65
2021/12/10 12:50:25;;;;;;;0.00;0.00;;;;;;;;;;6273667;22;20007;-67
2021/12/10 12:53:16;;;;;;;0.88;0.88;;;;;;;;;;6274181;22;19996;-65
2021/12/10 12:55:47;;;;;;;0.00;0.00;;;;;;;;;;6267853;22;20325;-65
2021/12/10 12:58:18;;;;;;;0.35;0.35;;;;;;;;;;6273903;22;20000;-66
2021/12/10 13:00:43;;;;;;;0.00;0.00;;;;;;;;;;6273734;22;20432;-65
2021/12/10 13:03:15;;;;;;;0.28;0.28;;;;;;;;;;6270052;22;20071;-64
2021/12/10 13:05:48;;;;;;;2.05;1.23;;;;;;;;;;6272067;22;20004;-65
2021/12/10 13:08:15;;;;;;;0.00;0.00;;;;;;;;;;6272897;22;20030;-66
2021/12/10 13:10:46;;;;;;;4.13;0.45;;;;;;;;;;6273406;22;20418;-65
2021/12/10 13:13:15;;;;;;;0.88;0.88;;;;;;;;;;6273552;22;20003;-67
2021/12/10 13:15:51;;;;;;;4.90;3.63;;;;;;;;;;6276280;22;20585;-65
2021/12/10 13:18:17;;;;;;;3.17;2.88;;;;;;;;;;6277245;22;20004;-64
2021/12/10 13:20:46;;;;;;;0.15;0.15;;;;;;;;;;6277523;22;20054;-66
2021/12/10 13:23:20;;;;;;;0.00;0.00;;;;;;;;;;6277545;22;20082;-62
2021/12/10 13:25:46;;;;;;;1.10;1.08;;;;;;;;;;6276568;22;19999;-67
2021/12/10 13:28:11;;;;;;;0.60;0.60;;;;;;;;;;6274512;22;20002;-64
2021/12/10 13:30:44;;;;;;;3.13;0.85;;;;;;;;;;6273847;22;20949;-65
2021/12/10 13:33:11;;;;;;;2.00;1.95;;;;;;;;;;6273272;22;19999;-65
2021/12/10 13:35:36;;;;;;;0.38;0.38;;;;;;;;;;6272882;22;20011;-65
2021/12/10 13:38:03;;;;;;;0.00;0.00;;;;;;;;;;6272616;22;19995;-63
2021/12/10 13:40:31;;;;;;;0.00;0.00;;;;;;;;;;6273554;22;20019;-64
2021/12/10 13:42:56;;;;;;;0.60;0.25;;;;;;;;;;6271746;22;20030;-63
2021/12/10 13:45:23;;;;;;;0.00;0.00;;;;;;;;;;6272902;22;19996;-64
2021/12/10 13:48:01;;;;;;;0.10;0.10;;;;;;;;;;6273355;22;19996;-64
2021/12/10 13:50:27;;;;;;;0.00;0.00;;;;;;;;;;6246258;22;20008;-63
2021/12/10 13:53:03;;;;;;;0.00;0.00;;;;;;;;;;6273115;22;20325;-63
2021/12/10 13:55:47;;;;;;;0.73;0.63;;;;;;;;;;6272133;22;20079;-65
2021/12/10 13:58:33;;;;;;;0.85;0.55;;;;;;;;;;6272373;22;20058;-66
2021/12/10 14:01:01;;;;;;;1.00;0.93;;;;;;;;;;6273035;22;20325;-65
2021/12/10 14:03:35;;;;;;;0.00;0.00;;;;;;;;;;6273110;22;20540;-66
2021/12/10 14:06:01;;;;;;;0.17;0.17;;;;;;;;;;6272960;22;20053;-66
2021/12/10 14:08:26;;;;;;;0.50;0.50;;;;;;;;;;6272788;22;20031;-65
2021/12/10 14:10:56;;;;;;;3.10;0.35;;;;;;;;;;6272989;22;20057;-65
2021/12/10 14:13:27;;;;;;;0.20;0.20;;;;;;;;;;6271993;22;20045;-65
2021/12/10 14:16:03;;;;;;;0.95;0.63;;;;;;;;;;6246031;22;20045;-65
2021/12/10 14:18:30;;;;;;;0.03;0.03;;;;;;;;;;6272629;22;20069;-66
2021/12/10 14:21:09;;;;;;;0.00;0.00;;;;;;;;;;6245773;22;20050;-65
2021/12/10 14:23:36;;;;;;;0.17;0.17;;;;;;;;;;6271515;22;20003;-64
2021/12/10 14:26:14;;;;;;;0.57;0.55;;;;;;;;;;6245511;22;20638;-65
2021/12/10 14:28:48;;;;;;;0.00;0.00;;;;;;;;;;6272532;22;20425;-65
2021/12/10 14:31:15;;;;;;;1.85;0.70;;;;;;;;;;6271769;22;19999;-66
2021/12/10 14:33:47;;;;;;;0.60;0.40;;;;;;;;;;6272045;22;20034;-64
2021/12/10 14:36:13;;;;;;;0.22;0.03;;;;;;;;;;6272408;22;20444;-66
2021/12/10 14:38:55;;;;;;;1.85;0.75;;;;;;;;;;6271236;22;20007;-65
2021/12/10 14:41:20;;;;;;;0.75;0.50;;;;;;;;;;6272097;22;20330;-66
2021/12/10 14:43:54;;;;;;;0.75;0.75;;;;;;;;;;6272536;22;20000;-67
2021/12/10 14:46:28;;;;;;;0.00;0.00;;;;;;;;;;6272259;22;20419;-66
2021/12/10 14:49:19;;;;;;;0.15;0.15;;;;;;;;;;6272004;22;20007;-66
2021/12/10 14:51:46;;;;;;;6.63;2.53;;;;;;;;;;6272548;22;20000;-66
2021/12/10 14:54:17;;;;;;;0.00;0.00;;;;;;;;;;6271738;22;20306;-66
2021/12/10 14:56:48;;;;;;;0.30;0.30;;;;;;;;;;6271549;22;20438;-66
2021/12/10 14:59:16;;;;;;;0.52;0.52;;;;;;;;;;6272657;22;20421;-65
2021/12/10 15:02:00;;;;;;;0.63;0.63;;;;;;;;;;6271342;22;20015;-67
2021/12/10 15:04:27;;;;;;;0.25;0.25;;;;;;;;;;6271296;22;19992;-68
2021/12/10 15:06:54;;;;;;;0.28;0.25;;;;;;;;;;6271850;22;20066;-68